sensor_id;sensor_type;location;lat;lon;timestamp;P1;durP1;ratioP1;P2;durP2;ratioP2
67352;SDS011;54238;52.278;21.056;2022-12-18T00:01:52;20.40;;;10.00;;
67352;SDS011;54238;52.278;21.056;2022-12-18T00:04:27;28.90;;;14.80;;
67352;SDS011;54238;52.278;21.056;2022-12-18T00:06:55;37.10;;;19.40;;
67352;SDS011;54238;52.278;21.056;2022-12-18T00:09:25;37.60;;;20.10;;
67352;SDS011;54238;52.278;21.056;2022-12-18T00:11:54;39.80;;;20.30;;
67352;SDS011;54238;52.278;21.056;2022-12-18T00:14:23;41.90;;;19.00;;
67352;SDS011;54238;52.278;21.056;2022-12-18T00:16:53;40.90;;;20.50;;
67352;SDS011;54238;52.278;21.056;2022-12-18T00:19:20;35.20;;;16.10;;
67352;SDS011;54238;52.278;21.056;2022-12-18T00:21:49;27.90;;;14.50;;
67352;SDS011;54238;52.278;21.056;2022-12-18T00:24:16;36.50;;;17.60;;
67352;SDS011;54238;52.278;21.056;2022-12-18T00:26:43;25.10;;;11.80;;
67352;SDS011;54238;52.278;21.056;2022-12-18T00:29:15;24.50;;;13.10;;
67352;SDS011;54238;52.278;21.056;2022-12-18T00:31:44;29.10;;;13.60;;
67352;SDS011;54238;52.278;21.056;2022-12-18T00:34:14;31.30;;;16.30;;
67352;SDS011;54238;52.278;21.056;2022-12-18T00:36:47;31.30;;;17.00;;
67352;SDS011;54238;52.278;21.056;2022-12-18T00:39:21;32.80;;;16.20;;
67352;SDS011;54238;52.278;21.056;2022-12-18T00:41:50;31.30;;;16.00;;
67352;SDS011;54238;52.278;21.056;2022-12-18T00:44:38;28.90;;;15.10;;
67352;SDS011;54238;52.278;21.056;2022-12-18T00:47:08;34.70;;;17.00;;
67352;SDS011;54238;52.278;21.056;2022-12-18T00:49:42;28.80;;;14.90;;
67352;SDS011;54238;52.278;21.056;2022-12-18T00:52:09;23.50;;;10.40;;
67352;SDS011;54238;52.278;21.056;2022-12-18T00:54:36;23.90;;;12.00;;
67352;SDS011;54238;52.278;21.056;2022-12-18T00:57:03;16.40;;;8.50;;
67352;SDS011;54238;52.278;21.056;2022-12-18T00:59:32;22.50;;;10.60;;
67352;SDS011;54238;52.278;21.056;2022-12-18T01:02:02;31.60;;;14.70;;
67352;SDS011;54238;52.278;21.056;2022-12-18T01:04:32;27.70;;;14.10;;
67352;SDS011;54238;52.278;21.056;2022-12-18T01:07:04;23.20;;;12.40;;
67352;SDS011;54238;52.278;21.056;2022-12-18T01:09:36;20.60;;;9.80;;
67352;SDS011;54238;52.278;21.056;2022-12-18T01:12:04;30.70;;;15.00;;
67352;SDS011;54238;52.278;21.056;2022-12-18T01:14:32;36.40;;;16.40;;
67352;SDS011;54238;52.278;21.056;2022-12-18T01:16:59;30.10;;;15.10;;
67352;SDS011;54238;52.278;21.056;2022-12-18T01:19:32;35.10;;;16.10;;
67352;SDS011;54238;52.278;21.056;2022-12-18T01:22:02;25.80;;;14.10;;
67352;SDS011;54238;52.278;21.056;2022-12-18T01:24:29;35.90;;;15.50;;
67352;SDS011;54238;52.278;21.056;2022-12-18T01:26:58;28.90;;;14.60;;
67352;SDS011;54238;52.278;21.056;2022-12-18T01:29:27;27.90;;;13.90;;
67352;SDS011;54238;52.278;21.056;2022-12-18T01:31:57;32.00;;;13.90;;
67352;SDS011;54238;52.278;21.056;2022-12-18T01:34:27;32.10;;;14.50;;
67352;SDS011;54238;52.278;21.056;2022-12-18T01:36:54;30.90;;;14.80;;
67352;SDS011;54238;52.278;21.056;2022-12-18T01:39:25;32.10;;;15.30;;
67352;SDS011;54238;52.278;21.056;2022-12-18T01:41:55;22.20;;;10.60;;
67352;SDS011;54238;52.278;21.056;2022-12-18T01:47:27;16.60;;;8.50;;
67352;SDS011;54238;52.278;21.056;2022-12-18T01:50:14;27.00;;;14.60;;
67352;SDS011;54238;52.278;21.056;2022-12-18T01:52:49;26.70;;;13.60;;
67352;SDS011;54238;52.278;21.056;2022-12-18T01:55:24;28.70;;;14.40;;
67352;SDS011;54238;52.278;21.056;2022-12-18T01:57:57;20.90;;;11.70;;
67352;SDS011;54238;52.278;21.056;2022-12-18T02:00:27;20.10;;;9.40;;
67352;SDS011;54238;52.278;21.056;2022-12-18T02:02:55;26.90;;;12.20;;
67352;SDS011;54238;52.278;21.056;2022-12-18T02:05:38;23.80;;;11.10;;
67352;SDS011;54238;52.278;21.056;2022-12-18T02:08:22;13.60;;;7.20;;
67352;SDS011;54238;52.278;21.056;2022-12-18T02:19:00;17.70;;;8.30;;
67352;SDS011;54238;52.278;21.056;2022-12-18T02:21:43;18.70;;;9.20;;
67352;SDS011;54238;52.278;21.056;2022-12-18T02:27:33;25.00;;;13.10;;
67352;SDS011;54238;52.278;21.056;2022-12-18T02:30:09;24.00;;;12.70;;
67352;SDS011;54238;52.278;21.056;2022-12-18T02:32:43;24.20;;;10.00;;
67352;SDS011;54238;52.278;21.056;2022-12-18T02:35:22;27.40;;;12.50;;
67352;SDS011;54238;52.278;21.056;2022-12-18T02:37:56;29.60;;;12.40;;
67352;SDS011;54238;52.278;21.056;2022-12-18T02:40:29;16.00;;;7.40;;
67352;SDS011;54238;52.278;21.056;2022-12-18T02:43:11;18.60;;;8.90;;
67352;SDS011;54238;52.278;21.056;2022-12-18T03:01:38;19.30;;;9.70;;
67352;SDS011;54238;52.278;21.056;2022-12-18T03:06:53;24.50;;;11.50;;
67352;SDS011;54238;52.278;21.056;2022-12-18T03:09:32;23.00;;;11.30;;
67352;SDS011;54238;52.278;21.056;2022-12-18T03:12:09;25.40;;;11.20;;
67352;SDS011;54238;52.278;21.056;2022-12-18T03:17:35;21.50;;;10.00;;
67352;SDS011;54238;52.278;21.056;2022-12-18T03:20:16;18.10;;;9.40;;
67352;SDS011;54238;52.278;21.056;2022-12-18T03:22:54;23.80;;;8.80;;
67352;SDS011;54238;52.278;21.056;2022-12-18T03:25:35;18.90;;;9.00;;
67352;SDS011;54238;52.278;21.056;2022-12-18T03:28:10;19.40;;;9.30;;
67352;SDS011;54238;52.278;21.056;2022-12-18T03:30:41;24.20;;;11.80;;
67352;SDS011;54238;52.278;21.056;2022-12-18T03:33:25;20.80;;;9.60;;
67352;SDS011;54238;52.278;21.056;2022-12-18T03:35:58;21.90;;;10.50;;
67352;SDS011;54238;52.278;21.056;2022-12-18T03:38:28;18.60;;;9.70;;
67352;SDS011;54238;52.278;21.056;2022-12-18T03:44:10;17.50;;;9.40;;
67352;SDS011;54238;52.278;21.056;2022-12-18T03:52:28;9.40;;;5.00;;
67352;SDS011;54238;52.278;21.056;2022-12-18T03:55:01;9.70;;;5.60;;
67352;SDS011;54238;52.278;21.056;2022-12-18T04:00:14;16.30;;;8.70;;
67352;SDS011;54238;52.278;21.056;2022-12-18T04:02:57;20.00;;;9.30;;
67352;SDS011;54238;52.278;21.056;2022-12-18T04:05:29;15.40;;;7.90;;
67352;SDS011;54238;52.278;21.056;2022-12-18T04:08:01;12.80;;;7.10;;
67352;SDS011;54238;52.278;21.056;2022-12-18T04:10:29;17.40;;;9.30;;
67352;SDS011;54238;52.278;21.056;2022-12-18T04:12:57;22.60;;;11.20;;
67352;SDS011;54238;52.278;21.056;2022-12-18T04:15:28;28.10;;;11.60;;
67352;SDS011;54238;52.278;21.056;2022-12-18T04:17:57;18.40;;;10.10;;
67352;SDS011;54238;52.278;21.056;2022-12-18T04:20:24;21.40;;;10.10;;
67352;SDS011;54238;52.278;21.056;2022-12-18T04:22:53;19.60;;;9.70;;
67352;SDS011;54238;52.278;21.056;2022-12-18T04:25:22;21.00;;;10.90;;
67352;SDS011;54238;52.278;21.056;2022-12-18T04:27:49;16.00;;;8.70;;
67352;SDS011;54238;52.278;21.056;2022-12-18T04:30:19;22.30;;;10.40;;
67352;SDS011;54238;52.278;21.056;2022-12-18T04:32:49;21.80;;;10.70;;
67352;SDS011;54238;52.278;21.056;2022-12-18T04:35:18;18.90;;;8.60;;
67352;SDS011;54238;52.278;21.056;2022-12-18T04:37:50;14.50;;;7.90;;
67352;SDS011;54238;52.278;21.056;2022-12-18T04:40:18;19.80;;;10.60;;
67352;SDS011;54238;52.278;21.056;2022-12-18T04:42:46;10.80;;;6.50;;
67352;SDS011;54238;52.278;21.056;2022-12-18T04:45:13;15.00;;;7.50;;
67352;SDS011;54238;52.278;21.056;2022-12-18T04:47:43;14.00;;;7.60;;
67352;SDS011;54238;52.278;21.056;2022-12-18T04:50:10;19.20;;;9.70;;
67352;SDS011;54238;52.278;21.056;2022-12-18T04:52:37;22.50;;;10.70;;
67352;SDS011;54238;52.278;21.056;2022-12-18T04:55:06;27.10;;;12.50;;
67352;SDS011;54238;52.278;21.056;2022-12-18T04:57:37;25.30;;;11.70;;
67352;SDS011;54238;52.278;21.056;2022-12-18T05:00:04;22.60;;;10.60;;
67352;SDS011;54238;52.278;21.056;2022-12-18T05:02:36;18.00;;;10.40;;
67352;SDS011;54238;52.278;21.056;2022-12-18T05:05:08;23.10;;;10.40;;
67352;SDS011;54238;52.278;21.056;2022-12-18T05:07:41;24.30;;;10.70;;
67352;SDS011;54238;52.278;21.056;2022-12-18T05:10:09;18.10;;;9.10;;
67352;SDS011;54238;52.278;21.056;2022-12-18T05:12:38;23.90;;;10.80;;
67352;SDS011;54238;52.278;21.056;2022-12-18T05:15:32;21.70;;;10.40;;
67352;SDS011;54238;52.278;21.056;2022-12-18T05:18:03;19.60;;;10.00;;
67352;SDS011;54238;52.278;21.056;2022-12-18T05:20:33;17.90;;;9.00;;
67352;SDS011;54238;52.278;21.056;2022-12-18T05:23:02;23.40;;;10.30;;
67352;SDS011;54238;52.278;21.056;2022-12-18T05:25:29;22.80;;;10.80;;
67352;SDS011;54238;52.278;21.056;2022-12-18T05:27:57;23.70;;;10.50;;
67352;SDS011;54238;52.278;21.056;2022-12-18T05:30:24;14.80;;;7.40;;
67352;SDS011;54238;52.278;21.056;2022-12-18T05:32:56;21.40;;;11.00;;
67352;SDS011;54238;52.278;21.056;2022-12-18T05:35:25;22.10;;;10.90;;
67352;SDS011;54238;52.278;21.056;2022-12-18T05:37:57;15.60;;;7.30;;
67352;SDS011;54238;52.278;21.056;2022-12-18T05:40:26;21.30;;;8.60;;
67352;SDS011;54238;52.278;21.056;2022-12-18T05:42:56;26.10;;;11.20;;
67352;SDS011;54238;52.278;21.056;2022-12-18T05:45:25;24.10;;;11.90;;
67352;SDS011;54238;52.278;21.056;2022-12-18T05:47:52;25.40;;;12.40;;
67352;SDS011;54238;52.278;21.056;2022-12-18T05:50:22;24.30;;;11.10;;
67352;SDS011;54238;52.278;21.056;2022-12-18T05:52:52;21.60;;;11.50;;
67352;SDS011;54238;52.278;21.056;2022-12-18T05:55:26;17.80;;;9.80;;
67352;SDS011;54238;52.278;21.056;2022-12-18T05:57:53;27.80;;;11.30;;
67352;SDS011;54238;52.278;21.056;2022-12-18T06:00:24;27.90;;;11.00;;
67352;SDS011;54238;52.278;21.056;2022-12-18T06:02:53;23.50;;;10.30;;
67352;SDS011;54238;52.278;21.056;2022-12-18T06:05:20;24.90;;;11.80;;
67352;SDS011;54238;52.278;21.056;2022-12-18T06:07:54;28.00;;;12.70;;
67352;SDS011;54238;52.278;21.056;2022-12-18T06:10:29;27.10;;;12.60;;
67352;SDS011;54238;52.278;21.056;2022-12-18T06:12:59;22.40;;;11.00;;
67352;SDS011;54238;52.278;21.056;2022-12-18T06:15:36;20.90;;;10.20;;
67352;SDS011;54238;52.278;21.056;2022-12-18T06:18:04;21.20;;;9.70;;
67352;SDS011;54238;52.278;21.056;2022-12-18T06:20:32;19.40;;;9.70;;
67352;SDS011;54238;52.278;21.056;2022-12-18T06:23:02;31.20;;;12.90;;
67352;SDS011;54238;52.278;21.056;2022-12-18T06:25:29;38.90;;;15.30;;
67352;SDS011;54238;52.278;21.056;2022-12-18T06:27:56;36.50;;;15.70;;
67352;SDS011;54238;52.278;21.056;2022-12-18T06:30:49;36.70;;;16.10;;
67352;SDS011;54238;52.278;21.056;2022-12-18T06:33:21;32.90;;;15.40;;
67352;SDS011;54238;52.278;21.056;2022-12-18T06:35:48;39.40;;;16.90;;
67352;SDS011;54238;52.278;21.056;2022-12-18T06:38:17;32.40;;;12.60;;
67352;SDS011;54238;52.278;21.056;2022-12-18T06:40:46;40.60;;;16.90;;
67352;SDS011;54238;52.278;21.056;2022-12-18T06:43:13;35.80;;;16.00;;
67352;SDS011;54238;52.278;21.056;2022-12-18T06:45:41;42.80;;;16.40;;
67352;SDS011;54238;52.278;21.056;2022-12-18T06:48:10;32.90;;;13.60;;
67352;SDS011;54238;52.278;21.056;2022-12-18T06:50:42;42.80;;;15.50;;
67352;SDS011;54238;52.278;21.056;2022-12-18T06:53:13;33.40;;;12.70;;
67352;SDS011;54238;52.278;21.056;2022-12-18T06:55:41;38.50;;;14.90;;
67352;SDS011;54238;52.278;21.056;2022-12-18T06:58:10;40.00;;;13.80;;
67352;SDS011;54238;52.278;21.056;2022-12-18T07:00:37;55.50;;;20.00;;
67352;SDS011;54238;52.278;21.056;2022-12-18T07:03:07;60.50;;;20.50;;
67352;SDS011;54238;52.278;21.056;2022-12-18T07:05:39;44.30;;;18.10;;
67352;SDS011;54238;52.278;21.056;2022-12-18T07:08:07;58.60;;;20.60;;
67352;SDS011;54238;52.278;21.056;2022-12-18T07:10:41;54.00;;;20.50;;
67352;SDS011;54238;52.278;21.056;2022-12-18T07:13:09;53.90;;;19.40;;
67352;SDS011;54238;52.278;21.056;2022-12-18T07:15:39;57.90;;;22.00;;
67352;SDS011;54238;52.278;21.056;2022-12-18T07:18:08;58.40;;;21.70;;
67352;SDS011;54238;52.278;21.056;2022-12-18T07:20:46;57.20;;;20.00;;
67352;SDS011;54238;52.278;21.056;2022-12-18T07:23:13;60.00;;;21.50;;
67352;SDS011;54238;52.278;21.056;2022-12-18T07:25:42;47.30;;;18.20;;
67352;SDS011;54238;52.278;21.056;2022-12-18T07:28:12;51.90;;;19.80;;
67352;SDS011;54238;52.278;21.056;2022-12-18T07:30:39;42.50;;;17.30;;
67352;SDS011;54238;52.278;21.056;2022-12-18T07:33:06;59.90;;;20.90;;
67352;SDS011;54238;52.278;21.056;2022-12-18T07:35:35;58.20;;;20.30;;
67352;SDS011;54238;52.278;21.056;2022-12-18T07:38:05;59.60;;;24.20;;
67352;SDS011;54238;52.278;21.056;2022-12-18T07:40:34;72.20;;;25.00;;
67352;SDS011;54238;52.278;21.056;2022-12-18T07:43:01;71.90;;;24.80;;
67352;SDS011;54238;52.278;21.056;2022-12-18T07:45:31;58.40;;;22.40;;
67352;SDS011;54238;52.278;21.056;2022-12-18T07:47:58;69.30;;;23.50;;
67352;SDS011;54238;52.278;21.056;2022-12-18T07:50:30;69.00;;;24.30;;
67352;SDS011;54238;52.278;21.056;2022-12-18T07:52:58;57.60;;;22.10;;
67352;SDS011;54238;52.278;21.056;2022-12-18T07:55:31;66.90;;;23.80;;
67352;SDS011;54238;52.278;21.056;2022-12-18T07:58:02;72.80;;;23.50;;
67352;SDS011;54238;52.278;21.056;2022-12-18T08:00:31;61.70;;;24.10;;
67352;SDS011;54238;52.278;21.056;2022-12-18T08:02:59;74.80;;;24.70;;
67352;SDS011;54238;52.278;21.056;2022-12-18T08:05:28;53.60;;;20.50;;
67352;SDS011;54238;52.278;21.056;2022-12-18T08:07:58;58.80;;;22.50;;
67352;SDS011;54238;52.278;21.056;2022-12-18T08:10:28;65.10;;;24.10;;
67352;SDS011;54238;52.278;21.056;2022-12-18T08:12:57;51.70;;;19.90;;
67352;SDS011;54238;52.278;21.056;2022-12-18T08:15:24;53.70;;;21.80;;
67352;SDS011;54238;52.278;21.056;2022-12-18T08:17:58;38.90;;;15.90;;
67352;SDS011;54238;52.278;21.056;2022-12-18T08:20:25;61.90;;;22.20;;
67352;SDS011;54238;52.278;21.056;2022-12-18T08:22:55;58.80;;;23.20;;
67352;SDS011;54238;52.278;21.056;2022-12-18T08:25:27;59.40;;;22.10;;
67352;SDS011;54238;52.278;21.056;2022-12-18T08:27:59;59.40;;;24.60;;
67352;SDS011;54238;52.278;21.056;2022-12-18T08:30:29;75.60;;;27.00;;
67352;SDS011;54238;52.278;21.056;2022-12-18T08:32:56;61.50;;;25.20;;
67352;SDS011;54238;52.278;21.056;2022-12-18T08:35:28;69.30;;;27.30;;
67352;SDS011;54238;52.278;21.056;2022-12-18T08:37:58;68.50;;;25.40;;
67352;SDS011;54238;52.278;21.056;2022-12-18T08:40:25;64.50;;;23.90;;
67352;SDS011;54238;52.278;21.056;2022-12-18T08:42:56;76.40;;;26.40;;
67352;SDS011;54238;52.278;21.056;2022-12-18T08:45:36;61.90;;;23.50;;
67352;SDS011;54238;52.278;21.056;2022-12-18T08:51:04;59.00;;;22.90;;
67352;SDS011;54238;52.278;21.056;2022-12-18T08:53:31;36.40;;;14.90;;
67352;SDS011;54238;52.278;21.056;2022-12-18T08:55:58;54.20;;;22.50;;
67352;SDS011;54238;52.278;21.056;2022-12-18T09:01:25;58.40;;;24.80;;
67352;SDS011;54238;52.278;21.056;2022-12-18T09:03:52;60.90;;;24.40;;
67352;SDS011;54238;52.278;21.056;2022-12-18T09:06:22;62.00;;;24.00;;
67352;SDS011;54238;52.278;21.056;2022-12-18T09:11:24;58.40;;;22.50;;
67352;SDS011;54238;52.278;21.056;2022-12-18T09:16:32;56.10;;;22.20;;
67352;SDS011;54238;52.278;21.056;2022-12-18T09:21:44;45.70;;;17.80;;
67352;SDS011;54238;52.278;21.056;2022-12-18T09:26:53;55.80;;;22.40;;
67352;SDS011;54238;52.278;21.056;2022-12-18T09:31:58;36.30;;;15.20;;
67352;SDS011;54238;52.278;21.056;2022-12-18T09:34:28;66.80;;;21.00;;
67352;SDS011;54238;52.278;21.056;2022-12-18T09:39:29;54.60;;;21.10;;
67352;SDS011;54238;52.278;21.056;2022-12-18T09:41:58;51.40;;;21.40;;
67352;SDS011;54238;52.278;21.056;2022-12-18T09:47:32;55.10;;;22.20;;
67352;SDS011;54238;52.278;21.056;2022-12-18T09:53:22;52.40;;;21.40;;
67352;SDS011;54238;52.278;21.056;2022-12-18T09:55:59;54.40;;;20.60;;
67352;SDS011;54238;52.278;21.056;2022-12-18T10:00:59;60.80;;;22.80;;
67352;SDS011;54238;52.278;21.056;2022-12-18T10:03:26;47.70;;;21.80;;
67352;SDS011;54238;52.278;21.056;2022-12-18T10:06:04;49.10;;;21.70;;
67352;SDS011;54238;52.278;21.056;2022-12-18T10:08:49;56.10;;;20.90;;
67352;SDS011;54238;52.278;21.056;2022-12-18T10:19:49;31.50;;;15.00;;
67352;SDS011;54238;52.278;21.056;2022-12-18T10:22:23;55.80;;;22.90;;
67352;SDS011;54238;52.278;21.056;2022-12-18T10:27:29;53.20;;;22.30;;
67352;SDS011;54238;52.278;21.056;2022-12-18T10:30:00;50.70;;;22.20;;
67352;SDS011;54238;52.278;21.056;2022-12-18T10:32:35;53.00;;;23.00;;
67352;SDS011;54238;52.278;21.056;2022-12-18T10:35:02;50.60;;;22.00;;
67352;SDS011;54238;52.278;21.056;2022-12-18T10:37:32;49.90;;;21.40;;
67352;SDS011;54238;52.278;21.056;2022-12-18T10:40:14;45.00;;;19.90;;
67352;SDS011;54238;52.278;21.056;2022-12-18T10:42:44;43.90;;;18.80;;
67352;SDS011;54238;52.278;21.056;2022-12-18T10:45:24;38.20;;;17.10;;
67352;SDS011;54238;52.278;21.056;2022-12-18T10:47:53;44.50;;;19.20;;
67352;SDS011;54238;52.278;21.056;2022-12-18T10:53:01;50.70;;;21.30;;
67352;SDS011;54238;52.278;21.056;2022-12-18T10:55:36;53.40;;;22.90;;
67352;SDS011;54238;52.278;21.056;2022-12-18T10:58:16;47.30;;;20.80;;
67352;SDS011;54238;52.278;21.056;2022-12-18T11:01:14;43.40;;;19.10;;
67352;SDS011;54238;52.278;21.056;2022-12-18T11:06:19;59.70;;;23.10;;
67352;SDS011;54238;52.278;21.056;2022-12-18T11:09:20;55.10;;;23.70;;
67352;SDS011;54238;52.278;21.056;2022-12-18T11:11:54;46.60;;;18.40;;
67352;SDS011;54238;52.278;21.056;2022-12-18T11:14:27;37.00;;;16.10;;
67352;SDS011;54238;52.278;21.056;2022-12-18T11:16:56;35.90;;;15.80;;
67352;SDS011;54238;52.278;21.056;2022-12-18T11:19:37;46.70;;;18.60;;
67352;SDS011;54238;52.278;21.056;2022-12-18T11:22:27;55.50;;;23.30;;
67352;SDS011;54238;52.278;21.056;2022-12-18T11:25:27;45.10;;;19.10;;
67352;SDS011;54238;52.278;21.056;2022-12-18T11:34:00;54.40;;;22.20;;
67352;SDS011;54238;52.278;21.056;2022-12-18T11:36:45;37.30;;;16.70;;
67352;SDS011;54238;52.278;21.056;2022-12-18T11:39:37;52.70;;;22.40;;
67352;SDS011;54238;52.278;21.056;2022-12-18T11:44:48;60.10;;;23.80;;
67352;SDS011;54238;52.278;21.056;2022-12-18T11:47:32;53.90;;;21.60;;
67352;SDS011;54238;52.278;21.056;2022-12-18T11:50:13;64.90;;;25.40;;
67352;SDS011;54238;52.278;21.056;2022-12-18T11:52:48;67.40;;;25.50;;
67352;SDS011;54238;52.278;21.056;2022-12-18T11:55:24;84.30;;;28.70;;
67352;SDS011;54238;52.278;21.056;2022-12-18T12:04:41;66.00;;;26.60;;
67352;SDS011;54238;52.278;21.056;2022-12-18T12:16:21;67.10;;;27.20;;
67352;SDS011;54238;52.278;21.056;2022-12-18T12:25:25;73.50;;;27.90;;
67352;SDS011;54238;52.278;21.056;2022-12-18T12:40:40;74.70;;;30.00;;
67352;SDS011;54238;52.278;21.056;2022-12-18T12:43:44;68.70;;;28.60;;
67352;SDS011;54238;52.278;21.056;2022-12-18T12:46:17;77.80;;;29.60;;
67352;SDS011;54238;52.278;21.056;2022-12-18T12:48:52;75.30;;;30.30;;
67352;SDS011;54238;52.278;21.056;2022-12-18T12:54:03;86.40;;;31.30;;
67352;SDS011;54238;52.278;21.056;2022-12-18T12:59:37;72.50;;;29.00;;
67352;SDS011;54238;52.278;21.056;2022-12-18T13:08:10;66.80;;;26.30;;
67352;SDS011;54238;52.278;21.056;2022-12-18T13:10:49;67.10;;;28.60;;
67352;SDS011;54238;52.278;21.056;2022-12-18T13:13:51;54.10;;;21.30;;
67352;SDS011;54238;52.278;21.056;2022-12-18T13:16:24;82.20;;;31.70;;
67352;SDS011;54238;52.278;21.056;2022-12-18T13:18:57;65.50;;;27.20;;
67352;SDS011;54238;52.278;21.056;2022-12-18T13:21:29;75.30;;;30.20;;
67352;SDS011;54238;52.278;21.056;2022-12-18T13:26:51;72.90;;;29.30;;
67352;SDS011;54238;52.278;21.056;2022-12-18T13:32:21;63.60;;;24.40;;
67352;SDS011;54238;52.278;21.056;2022-12-18T13:37:53;70.50;;;28.50;;
67352;SDS011;54238;52.278;21.056;2022-12-18T13:45:49;70.20;;;30.10;;
67352;SDS011;54238;52.278;21.056;2022-12-18T13:48:25;55.40;;;24.10;;
67352;SDS011;54238;52.278;21.056;2022-12-18T13:50:58;71.10;;;28.10;;
67352;SDS011;54238;52.278;21.056;2022-12-18T13:53:29;49.20;;;21.20;;
67352;SDS011;54238;52.278;21.056;2022-12-18T13:56:05;74.10;;;28.10;;
67352;SDS011;54238;52.278;21.056;2022-12-18T13:58:34;70.40;;;28.50;;
67352;SDS011;54238;52.278;21.056;2022-12-18T14:01:04;68.90;;;27.90;;
67352;SDS011;54238;52.278;21.056;2022-12-18T14:03:33;64.80;;;25.70;;
67352;SDS011;54238;52.278;21.056;2022-12-18T14:06:11;59.70;;;26.60;;
67352;SDS011;54238;52.278;21.056;2022-12-18T14:08:42;64.50;;;27.70;;
67352;SDS011;54238;52.278;21.056;2022-12-18T14:11:24;60.80;;;25.70;;
67352;SDS011;54238;52.278;21.056;2022-12-18T14:13:56;51.70;;;19.80;;
67352;SDS011;54238;52.278;21.056;2022-12-18T14:16:27;65.30;;;25.30;;
67352;SDS011;54238;52.278;21.056;2022-12-18T14:18:58;52.40;;;21.40;;
67352;SDS011;54238;52.278;21.056;2022-12-18T14:21:29;49.40;;;21.00;;
67352;SDS011;54238;52.278;21.056;2022-12-18T14:24:04;54.60;;;23.60;;
67352;SDS011;54238;52.278;21.056;2022-12-18T14:26:49;62.40;;;25.40;;
67352;SDS011;54238;52.278;21.056;2022-12-18T14:29:27;61.70;;;24.40;;
67352;SDS011;54238;52.278;21.056;2022-12-18T14:32:22;75.70;;;26.60;;
67352;SDS011;54238;52.278;21.056;2022-12-18T14:34:54;59.20;;;24.10;;
67352;SDS011;54238;52.278;21.056;2022-12-18T14:37:25;73.10;;;27.50;;
67352;SDS011;54238;52.278;21.056;2022-12-18T14:39:59;70.90;;;27.00;;
67352;SDS011;54238;52.278;21.056;2022-12-18T14:42:35;68.40;;;27.50;;
67352;SDS011;54238;52.278;21.056;2022-12-18T14:45:37;65.60;;;26.40;;
67352;SDS011;54238;52.278;21.056;2022-12-18T14:48:16;62.70;;;27.10;;
67352;SDS011;54238;52.278;21.056;2022-12-18T14:50:57;51.70;;;20.20;;
67352;SDS011;54238;52.278;21.056;2022-12-18T14:53:40;51.70;;;18.90;;
67352;SDS011;54238;52.278;21.056;2022-12-18T14:56:14;32.60;;;13.30;;
67352;SDS011;54238;52.278;21.056;2022-12-18T15:01:36;76.70;;;26.60;;
67352;SDS011;54238;52.278;21.056;2022-12-18T15:04:28;52.60;;;21.30;;
67352;SDS011;54238;52.278;21.056;2022-12-18T15:07:18;64.90;;;26.00;;
67352;SDS011;54238;52.278;21.056;2022-12-18T15:18:10;73.20;;;29.20;;
67352;SDS011;54238;52.278;21.056;2022-12-18T15:20:42;61.00;;;24.10;;
67352;SDS011;54238;52.278;21.056;2022-12-18T15:23:24;71.10;;;28.20;;
67352;SDS011;54238;52.278;21.056;2022-12-18T15:26:06;48.00;;;19.30;;
67352;SDS011;54238;52.278;21.056;2022-12-18T15:28:53;46.60;;;20.50;;
67352;SDS011;54238;52.278;21.056;2022-12-18T15:31:34;75.70;;;30.80;;
67352;SDS011;54238;52.278;21.056;2022-12-18T15:34:14;71.40;;;27.00;;
67352;SDS011;54238;52.278;21.056;2022-12-18T15:36:47;72.60;;;28.90;;
67352;SDS011;54238;52.278;21.056;2022-12-18T15:39:17;70.30;;;28.40;;
67352;SDS011;54238;52.278;21.056;2022-12-18T15:41:46;74.40;;;26.90;;
67352;SDS011;54238;52.278;21.056;2022-12-18T15:44:37;71.80;;;27.20;;
67352;SDS011;54238;52.278;21.056;2022-12-18T15:47:11;65.40;;;26.00;;
67352;SDS011;54238;52.278;21.056;2022-12-18T15:49:40;74.00;;;30.00;;
67352;SDS011;54238;52.278;21.056;2022-12-18T15:52:12;76.10;;;27.30;;
67352;SDS011;54238;52.278;21.056;2022-12-18T15:54:42;80.00;;;30.50;;
67352;SDS011;54238;52.278;21.056;2022-12-18T15:57:31;68.60;;;27.70;;
67352;SDS011;54238;52.278;21.056;2022-12-18T15:59:58;74.40;;;28.50;;
67352;SDS011;54238;52.278;21.056;2022-12-18T16:02:30;76.80;;;31.90;;
67352;SDS011;54238;52.278;21.056;2022-12-18T16:05:00;82.50;;;33.30;;
67352;SDS011;54238;52.278;21.056;2022-12-18T16:07:33;81.70;;;31.90;;
67352;SDS011;54238;52.278;21.056;2022-12-18T16:10:00;74.10;;;32.00;;
67352;SDS011;54238;52.278;21.056;2022-12-18T16:12:27;72.40;;;28.70;;
67352;SDS011;54238;52.278;21.056;2022-12-18T16:14:54;58.70;;;26.70;;
67352;SDS011;54238;52.278;21.056;2022-12-18T16:17:23;73.80;;;28.10;;
67352;SDS011;54238;52.278;21.056;2022-12-18T16:19:55;72.00;;;27.50;;
67352;SDS011;54238;52.278;21.056;2022-12-18T16:25:26;65.30;;;25.90;;
67352;SDS011;54238;52.278;21.056;2022-12-18T16:27:55;55.50;;;23.10;;
67352;SDS011;54238;52.278;21.056;2022-12-18T16:30:27;50.10;;;22.40;;
67352;SDS011;54238;52.278;21.056;2022-12-18T16:33:00;60.80;;;25.40;;
67352;SDS011;54238;52.278;21.056;2022-12-18T16:35:37;58.80;;;24.40;;
67352;SDS011;54238;52.278;21.056;2022-12-18T16:38:04;55.10;;;26.00;;
67352;SDS011;54238;52.278;21.056;2022-12-18T16:40:34;57.10;;;24.20;;
67352;SDS011;54238;52.278;21.056;2022-12-18T16:43:21;67.50;;;27.00;;
67352;SDS011;54238;52.278;21.056;2022-12-18T16:45:53;68.80;;;27.00;;
67352;SDS011;54238;52.278;21.056;2022-12-18T16:48:23;64.70;;;27.90;;
67352;SDS011;54238;52.278;21.056;2022-12-18T16:51:01;51.20;;;22.80;;
67352;SDS011;54238;52.278;21.056;2022-12-18T16:53:34;56.00;;;25.60;;
67352;SDS011;54238;52.278;21.056;2022-12-18T16:56:02;52.50;;;23.60;;
67352;SDS011;54238;52.278;21.056;2022-12-18T16:58:29;47.00;;;21.00;;
67352;SDS011;54238;52.278;21.056;2022-12-18T17:00:59;50.00;;;23.30;;
67352;SDS011;54238;52.278;21.056;2022-12-18T17:03:26;54.60;;;22.90;;
67352;SDS011;54238;52.278;21.056;2022-12-18T17:06:01;56.60;;;23.00;;
67352;SDS011;54238;52.278;21.056;2022-12-18T17:08:34;47.10;;;20.30;;
67352;SDS011;54238;52.278;21.056;2022-12-18T17:11:06;37.70;;;16.50;;
67352;SDS011;54238;52.278;21.056;2022-12-18T17:13:34;51.40;;;20.20;;
67352;SDS011;54238;52.278;21.056;2022-12-18T17:16:08;41.80;;;17.50;;
67352;SDS011;54238;52.278;21.056;2022-12-18T17:18:40;54.80;;;22.70;;
67352;SDS011;54238;52.278;21.056;2022-12-18T17:21:11;55.40;;;21.20;;
67352;SDS011;54238;52.278;21.056;2022-12-18T17:23:41;50.40;;;23.20;;
67352;SDS011;54238;52.278;21.056;2022-12-18T17:26:10;48.30;;;21.50;;
67352;SDS011;54238;52.278;21.056;2022-12-18T17:28:40;59.20;;;23.60;;
67352;SDS011;54238;52.278;21.056;2022-12-18T17:31:17;55.20;;;23.50;;
67352;SDS011;54238;52.278;21.056;2022-12-18T17:33:50;59.00;;;23.10;;
67352;SDS011;54238;52.278;21.056;2022-12-18T17:36:19;56.20;;;22.60;;
67352;SDS011;54238;52.278;21.056;2022-12-18T17:38:52;31.80;;;14.30;;
67352;SDS011;54238;52.278;21.056;2022-12-18T17:41:24;54.30;;;22.50;;